Banegas, Bolivia
Current Conditions -  °F | °C
As of 8:00 AM on Friday 26 Dec 2014 (Local Time) from SLVR Reporting Station
Broken Clouds Broken Clouds  
Wind Chill: 77°   Ceiling: 20000
Heat Index: 78°   Visibility: 6mi
Dew Point: 72°   Wind: 8mph
Humidity: 83%   Direction: 340°NNW
Pressure: 29.97"   Gusts: NA
Location:  17.16°S, 62.82°W
Report Text: SLVR 261200Z 34007KT 9999 FEW017 SCT070 BKN200 25/22 Q1015
Loading
Personal Weather Stations






























Interactive Weather Map New forecast layout! Learn more

10-Day Weather Forecast

Advertisements
Track Severe Weather on mobile